Аэропорт: Брест-2. Брест

ICAO: UMBB

METAR:
2019/05/26 13:30
UMBB 261330Z 27005G08MPS 9999 SCT043 20/06 Q1011 R29/CLRD// NOSIG
METAR:
2018/08/29 12:21
TAF UMBB 291405Z 2912/2924 34005MPS 6000 BKN015 
      TEMPO 2915/2918 3000 -SHRA SCT020CB 
      TEMPO 2918/2924 2000 BR BKN005